sensor_id;sensor_type;location;lat;lon;timestamp;temperature;humidity
33328;DHT22;19692;52.998;9.116;2023-02-01T00:01:54;5.30;99.90
33328;DHT22;19692;52.998;9.116;2023-02-01T00:04:20;5.30;99.90
33328;DHT22;19692;52.998;9.116;2023-02-01T00:06:46;5.30;99.90
33328;DHT22;19692;52.998;9.116;2023-02-01T00:09:12;5.30;99.90
33328;DHT22;19692;52.998;9.116;2023-02-01T00:11:38;5.30;99.90
33328;DHT22;19692;52.998;9.116;2023-02-01T00:14:04;5.30;99.90
33328;DHT22;19692;52.998;9.116;2023-02-01T00:16:30;5.30;99.90
33328;DHT22;19692;52.998;9.116;2023-02-01T00:18:59;5.40;99.90
33328;DHT22;19692;52.998;9.116;2023-02-01T00:21:26;5.30;99.90
33328;DHT22;19692;52.998;9.116;2023-02-01T00:23:52;5.40;99.90
33328;DHT22;19692;52.998;9.116;2023-02-01T00:26:29;5.40;99.90
33328;DHT22;19692;52.998;9.116;2023-02-01T00:28:57;5.40;99.90
33328;DHT22;19692;52.998;9.116;2023-02-01T00:31:23;5.40;99.90
33328;DHT22;19692;52.998;9.116;2023-02-01T00:33:49;5.30;99.90
33328;DHT22;19692;52.998;9.116;2023-02-01T00:36:15;5.30;99.90
33328;DHT22;19692;52.998;9.116;2023-02-01T00:38:42;5.30;99.90
33328;DHT22;19692;52.998;9.116;2023-02-01T00:41:17;5.20;99.90
33328;DHT22;19692;52.998;9.116;2023-02-01T00:43:44;5.20;99.90
33328;DHT22;19692;52.998;9.116;2023-02-01T00:46:11;5.30;99.90
33328;DHT22;19692;52.998;9.116;2023-02-01T00:48:38;5.30;99.90
33328;DHT22;19692;52.998;9.116;2023-02-01T00:51:11;5.30;99.90
33328;DHT22;19692;52.998;9.116;2023-02-01T00:53:38;5.30;99.90
33328;DHT22;19692;52.998;9.116;2023-02-01T00:56:04;5.30;99.90
33328;DHT22;19692;52.998;9.116;2023-02-01T00:58:32;5.30;99.90
33328;DHT22;19692;52.998;9.116;2023-02-01T01:01:06;5.30;99.90
33328;DHT22;19692;52.998;9.116;2023-02-01T01:03:35;5.40;99.90
33328;DHT22;19692;52.998;9.116;2023-02-01T01:06:05;5.40;99.90
33328;DHT22;19692;52.998;9.116;2023-02-01T01:08:33;5.30;99.90
33328;DHT22;19692;52.998;9.116;2023-02-01T01:11:10;5.30;99.90
33328;DHT22;19692;52.998;9.116;2023-02-01T01:13:38;5.30;99.90
33328;DHT22;19692;52.998;9.116;2023-02-01T01:16:05;5.40;99.90
33328;DHT22;19692;52.998;9.116;2023-02-01T01:18:33;5.40;99.90
33328;DHT22;19692;52.998;9.116;2023-02-01T01:21:00;5.30;99.90
33328;DHT22;19692;52.998;9.116;2023-02-01T01:23:27;5.40;99.90
33328;DHT22;19692;52.998;9.116;2023-02-01T01:25:53;5.30;99.90
33328;DHT22;19692;52.998;9.116;2023-02-01T01:28:19;5.40;99.90
33328;DHT22;19692;52.998;9.116;2023-02-01T01:30:46;5.40;99.90
33328;DHT22;19692;52.998;9.116;2023-02-01T01:33:11;5.40;99.90
33328;DHT22;19692;52.998;9.116;2023-02-01T01:35:37;5.40;99.90
33328;DHT22;19692;52.998;9.116;2023-02-01T01:38:03;5.40;99.90
33328;DHT22;19692;52.998;9.116;2023-02-01T01:40:30;5.30;99.90
33328;DHT22;19692;52.998;9.116;2023-02-01T01:42:56;5.30;99.90
33328;DHT22;19692;52.998;9.116;2023-02-01T01:45:31;5.30;99.90
33328;DHT22;19692;52.998;9.116;2023-02-01T01:48:01;5.30;99.90
33328;DHT22;19692;52.998;9.116;2023-02-01T01:50:40;5.30;99.90
33328;DHT22;19692;52.998;9.116;2023-02-01T01:53:12;5.40;99.90
33328;DHT22;19692;52.998;9.116;2023-02-01T01:55:43;5.30;99.90
33328;DHT22;19692;52.998;9.116;2023-02-01T01:58:13;5.40;99.90
33328;DHT22;19692;52.998;9.116;2023-02-01T02:00:42;5.40;99.90
33328;DHT22;19692;52.998;9.116;2023-02-01T02:03:21;5.40;99.90
33328;DHT22;19692;52.998;9.116;2023-02-01T02:05:50;5.40;99.90
33328;DHT22;19692;52.998;9.116;2023-02-01T02:08:17;5.30;99.90
33328;DHT22;19692;52.998;9.116;2023-02-01T02:10:46;5.30;99.90
33328;DHT22;19692;52.998;9.116;2023-02-01T02:13:35;5.30;99.90
33328;DHT22;19692;52.998;9.116;2023-02-01T02:16:05;5.30;99.90
33328;DHT22;19692;52.998;9.116;2023-02-01T02:22:12;5.30;99.90
33328;DHT22;19692;52.998;9.116;2023-02-01T02:31:27;5.20;99.90
33328;DHT22;19692;52.998;9.116;2023-02-01T02:34:53;5.10;99.90
33328;DHT22;19692;52.998;9.116;2023-02-01T02:40:34;5.10;99.90
33328;DHT22;19692;52.998;9.116;2023-02-01T02:43:09;5.10;99.90
33328;DHT22;19692;52.998;9.116;2023-02-01T02:46:07;5.10;99.90
33328;DHT22;19692;52.998;9.116;2023-02-01T02:49:09;5.10;99.90
33328;DHT22;19692;52.998;9.116;2023-02-01T02:51:43;5.10;99.90
33328;DHT22;19692;52.998;9.116;2023-02-01T02:54:36;5.10;99.90
33328;DHT22;19692;52.998;9.116;2023-02-01T02:57:22;5.10;99.90
33328;DHT22;19692;52.998;9.116;2023-02-01T03:00:13;5.10;99.90
33328;DHT22;19692;52.998;9.116;2023-02-01T03:03:00;5.10;99.90
33328;DHT22;19692;52.998;9.116;2023-02-01T03:05:47;5.10;99.90
33328;DHT22;19692;52.998;9.116;2023-02-01T03:08:24;5.10;99.90
33328;DHT22;19692;52.998;9.116;2023-02-01T03:13:35;5.10;99.90
33328;DHT22;19692;52.998;9.116;2023-02-01T03:19:33;5.10;99.90
33328;DHT22;19692;52.998;9.116;2023-02-01T03:22:04;5.00;99.90
33328;DHT22;19692;52.998;9.116;2023-02-01T03:27:15;5.10;99.90
33328;DHT22;19692;52.998;9.116;2023-02-01T03:32:24;5.10;99.90
33328;DHT22;19692;52.998;9.116;2023-02-01T03:34:51;5.10;99.90
33328;DHT22;19692;52.998;9.116;2023-02-01T03:37:25;5.10;99.90
33328;DHT22;19692;52.998;9.116;2023-02-01T03:40:00;5.10;99.90
33328;DHT22;19692;52.998;9.116;2023-02-01T03:42:37;5.10;99.90
33328;DHT22;19692;52.998;9.116;2023-02-01T03:45:13;5.10;99.90
33328;DHT22;19692;52.998;9.116;2023-02-01T03:47:47;5.10;99.90
33328;DHT22;19692;52.998;9.116;2023-02-01T03:50:17;5.00;99.90
33328;DHT22;19692;52.998;9.116;2023-02-01T03:52:52;5.00;99.90
33328;DHT22;19692;52.998;9.116;2023-02-01T03:55:22;5.00;99.90
33328;DHT22;19692;52.998;9.116;2023-02-01T03:57:57;4.90;99.90
33328;DHT22;19692;52.998;9.116;2023-02-01T04:00:26;4.80;99.90
33328;DHT22;19692;52.998;9.116;2023-02-01T04:02:53;4.80;99.90
33328;DHT22;19692;52.998;9.116;2023-02-01T04:05:19;4.80;99.90
33328;DHT22;19692;52.998;9.116;2023-02-01T04:07:45;4.80;99.90
33328;DHT22;19692;52.998;9.116;2023-02-01T04:10:12;4.70;99.90
33328;DHT22;19692;52.998;9.116;2023-02-01T04:12:37;4.60;99.90
33328;DHT22;19692;52.998;9.116;2023-02-01T04:15:04;4.50;99.90
33328;DHT22;19692;52.998;9.116;2023-02-01T04:17:30;4.60;99.90
33328;DHT22;19692;52.998;9.116;2023-02-01T04:19:56;4.50;99.90
33328;DHT22;19692;52.998;9.116;2023-02-01T04:22:21;4.50;99.90
33328;DHT22;19692;52.998;9.116;2023-02-01T04:24:47;4.50;99.90
33328;DHT22;19692;52.998;9.116;2023-02-01T04:27:13;4.50;99.90
33328;DHT22;19692;52.998;9.116;2023-02-01T04:29:39;4.40;99.90
33328;DHT22;19692;52.998;9.116;2023-02-01T04:32:05;4.40;99.90
33328;DHT22;19692;52.998;9.116;2023-02-01T04:34:31;4.40;99.90
33328;DHT22;19692;52.998;9.116;2023-02-01T04:36:57;4.40;99.90
33328;DHT22;19692;52.998;9.116;2023-02-01T04:39:23;4.40;99.90
33328;DHT22;19692;52.998;9.116;2023-02-01T04:41:48;4.40;99.90
33328;DHT22;19692;52.998;9.116;2023-02-01T04:44:16;4.30;99.90
33328;DHT22;19692;52.998;9.116;2023-02-01T04:46:43;4.30;99.90
33328;DHT22;19692;52.998;9.116;2023-02-01T04:49:11;4.30;99.90
33328;DHT22;19692;52.998;9.116;2023-02-01T04:51:37;4.40;99.90
33328;DHT22;19692;52.998;9.116;2023-02-01T04:54:03;4.40;99.90
33328;DHT22;19692;52.998;9.116;2023-02-01T04:56:29;4.40;99.90
33328;DHT22;19692;52.998;9.116;2023-02-01T04:58:55;4.40;99.90
33328;DHT22;19692;52.998;9.116;2023-02-01T05:01:22;4.40;99.90
33328;DHT22;19692;52.998;9.116;2023-02-01T05:03:48;4.40;99.90
33328;DHT22;19692;52.998;9.116;2023-02-01T05:06:14;4.40;99.90
33328;DHT22;19692;52.998;9.116;2023-02-01T05:08:40;4.40;99.90
33328;DHT22;19692;52.998;9.116;2023-02-01T05:11:06;4.50;99.90
33328;DHT22;19692;52.998;9.116;2023-02-01T05:13:31;4.50;99.90
33328;DHT22;19692;52.998;9.116;2023-02-01T05:16:16;4.60;99.90
33328;DHT22;19692;52.998;9.116;2023-02-01T05:18:42;4.60;99.90
33328;DHT22;19692;52.998;9.116;2023-02-01T05:21:08;4.70;99.90
33328;DHT22;19692;52.998;9.116;2023-02-01T05:23:33;4.60;99.90
33328;DHT22;19692;52.998;9.116;2023-02-01T05:26:19;4.60;99.90
33328;DHT22;19692;52.998;9.116;2023-02-01T05:28:45;4.70;99.90
33328;DHT22;19692;52.998;9.116;2023-02-01T05:31:11;4.70;99.90
33328;DHT22;19692;52.998;9.116;2023-02-01T05:33:37;4.70;99.90
33328;DHT22;19692;52.998;9.116;2023-02-01T05:36:03;4.80;99.90
33328;DHT22;19692;52.998;9.116;2023-02-01T05:38:29;4.80;99.90
33328;DHT22;19692;52.998;9.116;2023-02-01T05:40:57;4.70;99.90
33328;DHT22;19692;52.998;9.116;2023-02-01T05:43:23;4.80;99.90
33328;DHT22;19692;52.998;9.116;2023-02-01T05:45:49;4.80;99.90
33328;DHT22;19692;52.998;9.116;2023-02-01T05:48:14;4.80;99.90
33328;DHT22;19692;52.998;9.116;2023-02-01T05:50:40;4.80;99.90
33328;DHT22;19692;52.998;9.116;2023-02-01T05:53:06;4.80;99.90
33328;DHT22;19692;52.998;9.116;2023-02-01T05:55:32;4.80;99.90
33328;DHT22;19692;52.998;9.116;2023-02-01T05:57:58;4.80;99.90
33328;DHT22;19692;52.998;9.116;2023-02-01T06:00:24;4.80;99.90
33328;DHT22;19692;52.998;9.116;2023-02-01T06:02:50;4.80;99.90
33328;DHT22;19692;52.998;9.116;2023-02-01T06:05:15;4.80;99.90
33328;DHT22;19692;52.998;9.116;2023-02-01T06:07:41;4.80;99.90
33328;DHT22;19692;52.998;9.116;2023-02-01T06:10:08;4.70;99.90
33328;DHT22;19692;52.998;9.116;2023-02-01T06:12:34;4.70;99.90
33328;DHT22;19692;52.998;9.116;2023-02-01T06:15:00;4.70;99.90
33328;DHT22;19692;52.998;9.116;2023-02-01T06:17:26;4.70;99.90
33328;DHT22;19692;52.998;9.116;2023-02-01T06:19:51;4.70;99.90
33328;DHT22;19692;52.998;9.116;2023-02-01T06:22:17;4.70;99.90
33328;DHT22;19692;52.998;9.116;2023-02-01T06:24:43;4.70;99.90
33328;DHT22;19692;52.998;9.116;2023-02-01T06:27:09;4.70;99.90
33328;DHT22;19692;52.998;9.116;2023-02-01T06:29:35;4.60;99.90
33328;DHT22;19692;52.998;9.116;2023-02-01T06:32:01;4.60;99.90
33328;DHT22;19692;52.998;9.116;2023-02-01T06:34:28;4.60;99.90
33328;DHT22;19692;52.998;9.116;2023-02-01T06:36:54;4.60;99.90
33328;DHT22;19692;52.998;9.116;2023-02-01T06:39:20;4.60;99.90
33328;DHT22;19692;52.998;9.116;2023-02-01T06:41:49;4.60;99.90
33328;DHT22;19692;52.998;9.116;2023-02-01T06:44:16;4.70;99.90
33328;DHT22;19692;52.998;9.116;2023-02-01T06:46:42;4.60;99.90
33328;DHT22;19692;52.998;9.116;2023-02-01T06:49:08;4.60;99.90
33328;DHT22;19692;52.998;9.116;2023-02-01T06:51:34;4.60;99.90
33328;DHT22;19692;52.998;9.116;2023-02-01T06:54:00;4.70;99.90
33328;DHT22;19692;52.998;9.116;2023-02-01T06:56:26;4.70;99.90
33328;DHT22;19692;52.998;9.116;2023-02-01T06:58:52;4.70;99.90
33328;DHT22;19692;52.998;9.116;2023-02-01T07:01:18;4.70;99.90
33328;DHT22;19692;52.998;9.116;2023-02-01T07:03:48;4.70;99.90
33328;DHT22;19692;52.998;9.116;2023-02-01T07:06:14;4.70;99.90
33328;DHT22;19692;52.998;9.116;2023-02-01T07:08:40;4.70;99.90
33328;DHT22;19692;52.998;9.116;2023-02-01T07:11:08;4.80;99.90
33328;DHT22;19692;52.998;9.116;2023-02-01T07:13:35;4.80;99.90
33328;DHT22;19692;52.998;9.116;2023-02-01T07:16:02;4.80;99.90
33328;DHT22;19692;52.998;9.116;2023-02-01T07:18:30;4.90;99.90
33328;DHT22;19692;52.998;9.116;2023-02-01T07:20:56;5.00;99.90
33328;DHT22;19692;52.998;9.116;2023-02-01T07:23:22;5.00;99.90
33328;DHT22;19692;52.998;9.116;2023-02-01T07:25:49;5.10;99.90
33328;DHT22;19692;52.998;9.116;2023-02-01T07:28:18;5.00;99.90
33328;DHT22;19692;52.998;9.116;2023-02-01T07:30:44;4.90;99.90
33328;DHT22;19692;52.998;9.116;2023-02-01T07:33:22;4.90;99.90
33328;DHT22;19692;52.998;9.116;2023-02-01T07:35:49;4.70;99.90
33328;DHT22;19692;52.998;9.116;2023-02-01T07:38:16;4.50;99.90
33328;DHT22;19692;52.998;9.116;2023-02-01T07:40:42;4.40;99.90
33328;DHT22;19692;52.998;9.116;2023-02-01T07:43:08;4.40;99.90
33328;DHT22;19692;52.998;9.116;2023-02-01T07:45:35;4.50;99.90
33328;DHT22;19692;52.998;9.116;2023-02-01T07:48:01;4.50;99.90
33328;DHT22;19692;52.998;9.116;2023-02-01T07:50:28;4.50;99.90
33328;DHT22;19692;52.998;9.116;2023-02-01T07:52:54;4.60;99.90
33328;DHT22;19692;52.998;9.116;2023-02-01T07:55:20;4.60;99.90
33328;DHT22;19692;52.998;9.116;2023-02-01T07:57:46;4.60;99.90
33328;DHT22;19692;52.998;9.116;2023-02-01T08:00:13;4.70;99.90
33328;DHT22;19692;52.998;9.116;2023-02-01T08:02:58;4.80;99.90
33328;DHT22;19692;52.998;9.116;2023-02-01T08:05:25;4.80;99.90
33328;DHT22;19692;52.998;9.116;2023-02-01T08:07:50;4.70;99.90
33328;DHT22;19692;52.998;9.116;2023-02-01T08:10:17;4.70;99.90
33328;DHT22;19692;52.998;9.116;2023-02-01T08:12:44;4.80;99.90
33328;DHT22;19692;52.998;9.116;2023-02-01T08:15:14;4.90;99.90
33328;DHT22;19692;52.998;9.116;2023-02-01T08:17:48;5.00;99.90
33328;DHT22;19692;52.998;9.116;2023-02-01T08:20:15;5.00;99.90
33328;DHT22;19692;52.998;9.116;2023-02-01T08:22:41;5.10;99.90
33328;DHT22;19692;52.998;9.116;2023-02-01T08:25:07;5.10;99.90
33328;DHT22;19692;52.998;9.116;2023-02-01T08:27:33;5.10;99.90
33328;DHT22;19692;52.998;9.116;2023-02-01T08:30:00;5.20;99.90
33328;DHT22;19692;52.998;9.116;2023-02-01T08:32:26;5.20;99.90
33328;DHT22;19692;52.998;9.116;2023-02-01T08:34:52;5.20;99.90
33328;DHT22;19692;52.998;9.116;2023-02-01T08:37:18;5.20;99.90
33328;DHT22;19692;52.998;9.116;2023-02-01T08:39:44;5.20;99.90
33328;DHT22;19692;52.998;9.116;2023-02-01T08:42:11;5.20;99.90
33328;DHT22;19692;52.998;9.116;2023-02-01T08:44:56;5.20;99.90
33328;DHT22;19692;52.998;9.116;2023-02-01T08:47:22;5.30;99.90
33328;DHT22;19692;52.998;9.116;2023-02-01T08:49:48;5.20;99.90
33328;DHT22;19692;52.998;9.116;2023-02-01T08:52:14;5.30;99.90
33328;DHT22;19692;52.998;9.116;2023-02-01T08:54:39;5.40;99.90
33328;DHT22;19692;52.998;9.116;2023-02-01T08:57:07;5.40;99.90
33328;DHT22;19692;52.998;9.116;2023-02-01T08:59:36;5.40;99.90
33328;DHT22;19692;52.998;9.116;2023-02-01T09:02:02;5.40;99.90
33328;DHT22;19692;52.998;9.116;2023-02-01T09:04:27;5.50;99.90
33328;DHT22;19692;52.998;9.116;2023-02-01T09:06:53;5.50;99.90
33328;DHT22;19692;52.998;9.116;2023-02-01T09:09:24;5.60;99.90
33328;DHT22;19692;52.998;9.116;2023-02-01T09:11:50;5.60;99.90
33328;DHT22;19692;52.998;9.116;2023-02-01T09:14:16;5.60;99.90
33328;DHT22;19692;52.998;9.116;2023-02-01T09:16:42;5.60;99.90
33328;DHT22;19692;52.998;9.116;2023-02-01T09:19:08;5.60;99.90
33328;DHT22;19692;52.998;9.116;2023-02-01T09:21:34;5.60;99.90
33328;DHT22;19692;52.998;9.116;2023-02-01T09:24:00;5.60;99.90
33328;DHT22;19692;52.998;9.116;2023-02-01T09:26:26;5.60;99.90
33328;DHT22;19692;52.998;9.116;2023-02-01T09:28:52;5.60;99.90
33328;DHT22;19692;52.998;9.116;2023-02-01T09:31:18;5.70;99.90
33328;DHT22;19692;52.998;9.116;2023-02-01T09:33:44;5.80;99.90
33328;DHT22;19692;52.998;9.116;2023-02-01T09:36:10;5.70;99.90
33328;DHT22;19692;52.998;9.116;2023-02-01T09:38:36;5.80;99.90
33328;DHT22;19692;52.998;9.116;2023-02-01T09:41:21;5.80;99.90
33328;DHT22;19692;52.998;9.116;2023-02-01T09:46:29;5.90;99.90
33328;DHT22;19692;52.998;9.116;2023-02-01T09:49:01;5.90;99.90
33328;DHT22;19692;52.998;9.116;2023-02-01T09:51:38;5.90;99.90
33328;DHT22;19692;52.998;9.116;2023-02-01T09:56:48;6.00;99.90
33328;DHT22;19692;52.998;9.116;2023-02-01T09:59:39;5.90;99.90
33328;DHT22;19692;52.998;9.116;2023-02-01T10:02:17;5.90;99.90
33328;DHT22;19692;52.998;9.116;2023-02-01T10:04:46;5.90;99.90
33328;DHT22;19692;52.998;9.116;2023-02-01T10:10:16;6.00;99.90
33328;DHT22;19692;52.998;9.116;2023-02-01T10:15:31;5.90;99.90
33328;DHT22;19692;52.998;9.116;2023-02-01T10:18:17;6.00;99.90
33328;DHT22;19692;52.998;9.116;2023-02-01T10:26:30;6.00;99.90
33328;DHT22;19692;52.998;9.116;2023-02-01T10:29:01;6.00;99.90
33328;DHT22;19692;52.998;9.116;2023-02-01T10:31:31;6.00;99.90
33328;DHT22;19692;52.998;9.116;2023-02-01T10:34:09;6.10;99.90
33328;DHT22;19692;52.998;9.116;2023-02-01T10:37:00;6.10;99.90
33328;DHT22;19692;52.998;9.116;2023-02-01T10:39:46;6.10;99.90
33328;DHT22;19692;52.998;9.116;2023-02-01T10:42:14;6.10;99.90
33328;DHT22;19692;52.998;9.116;2023-02-01T10:44:43;6.10;99.90
33328;DHT22;19692;52.998;9.116;2023-02-01T10:47:10;6.10;99.90
33328;DHT22;19692;52.998;9.116;2023-02-01T10:49:55;6.10;99.90
33328;DHT22;19692;52.998;9.116;2023-02-01T10:52:47;6.10;99.90
33328;DHT22;19692;52.998;9.116;2023-02-01T10:55:33;6.10;99.90
33328;DHT22;19692;52.998;9.116;2023-02-01T10:58:02;6.00;99.90
33328;DHT22;19692;52.998;9.116;2023-02-01T11:00:44;5.90;99.90
33328;DHT22;19692;52.998;9.116;2023-02-01T11:03:39;5.70;99.90
33328;DHT22;19692;52.998;9.116;2023-02-01T11:06:27;5.70;99.90
33328;DHT22;19692;52.998;9.116;2023-02-01T11:08:57;5.60;99.90
33328;DHT22;19692;52.998;9.116;2023-02-01T11:11:24;5.60;99.90
33328;DHT22;19692;52.998;9.116;2023-02-01T11:13:57;5.60;99.90
33328;DHT22;19692;52.998;9.116;2023-02-01T11:16:37;5.60;99.90
33328;DHT22;19692;52.998;9.116;2023-02-01T11:19:04;5.60;99.90
33328;DHT22;19692;52.998;9.116;2023-02-01T11:21:31;5.60;99.90
33328;DHT22;19692;52.998;9.116;2023-02-01T11:24:03;5.70;99.90
33328;DHT22;19692;52.998;9.116;2023-02-01T11:26:29;5.60;99.90
33328;DHT22;19692;52.998;9.116;2023-02-01T11:29:01;5.70;99.90
33328;DHT22;19692;52.998;9.116;2023-02-01T11:31:29;5.60;99.90
33328;DHT22;19692;52.998;9.116;2023-02-01T11:33:59;5.70;99.90
33328;DHT22;19692;52.998;9.116;2023-02-01T11:36:32;5.60;99.90
33328;DHT22;19692;52.998;9.116;2023-02-01T11:42:01;5.50;99.90
33328;DHT22;19692;52.998;9.116;2023-02-01T11:44:39;5.40;99.90
33328;DHT22;19692;52.998;9.116;2023-02-01T11:47:31;5.40;99.90
33328;DHT22;19692;52.998;9.116;2023-02-01T11:50:19;5.40;99.90
33328;DHT22;19692;52.998;9.116;2023-02-01T11:53:17;5.30;99.90
33328;DHT22;19692;52.998;9.116;2023-02-01T11:55:57;5.20;99.90
33328;DHT22;19692;52.998;9.116;2023-02-01T12:07:58;4.90;99.90
33328;DHT22;19692;52.998;9.116;2023-02-01T12:10:43;4.90;99.90
33328;DHT22;19692;52.998;9.116;2023-02-01T12:13:41;4.90;99.90
33328;DHT22;19692;52.998;9.116;2023-02-01T12:16:49;4.90;99.90
33328;DHT22;19692;52.998;9.116;2023-02-01T12:19:33;4.80;99.90
33328;DHT22;19692;52.998;9.116;2023-02-01T12:28:59;4.90;99.90
33328;DHT22;19692;52.998;9.116;2023-02-01T12:37:16;5.00;99.90
33328;DHT22;19692;52.998;9.116;2023-02-01T12:39:52;4.70;99.90
33328;DHT22;19692;52.998;9.116;2023-02-01T12:42:47;4.20;99.90
33328;DHT22;19692;52.998;9.116;2023-02-01T12:45:34;3.70;99.90
33328;DHT22;19692;52.998;9.116;2023-02-01T12:48:28;3.40;99.90
33328;DHT22;19692;52.998;9.116;2023-02-01T12:51:17;3.20;99.90
33328;DHT22;19692;52.998;9.116;2023-02-01T12:53:51;3.10;99.90
33328;DHT22;19692;52.998;9.116;2023-02-01T12:56:43;3.00;99.90
33328;DHT22;19692;52.998;9.116;2023-02-01T12:59:37;3.00;99.90
33328;DHT22;19692;52.998;9.116;2023-02-01T13:05:16;3.10;99.90
33328;DHT22;19692;52.998;9.116;2023-02-01T13:07:50;3.20;99.90
33328;DHT22;19692;52.998;9.116;2023-02-01T13:10:25;3.30;99.90
33328;DHT22;19692;52.998;9.116;2023-02-01T13:13:16;3.70;99.90
33328;DHT22;19692;52.998;9.116;2023-02-01T13:18:44;4.00;99.90
33328;DHT22;19692;52.998;9.116;2023-02-01T13:21:27;4.00;99.90
33328;DHT22;19692;52.998;9.116;2023-02-01T13:23:57;4.00;99.90
33328;DHT22;19692;52.998;9.116;2023-02-01T13:26:25;4.00;99.90
33328;DHT22;19692;52.998;9.116;2023-02-01T13:28:57;4.00;99.90
33328;DHT22;19692;52.998;9.116;2023-02-01T13:31:52;3.90;99.90
33328;DHT22;19692;52.998;9.116;2023-02-01T13:34:44;3.90;99.90
33328;DHT22;19692;52.998;9.116;2023-02-01T13:40:39;4.00;99.90
33328;DHT22;19692;52.998;9.116;2023-02-01T13:43:17;4.00;99.90
33328;DHT22;19692;52.998;9.116;2023-02-01T13:45:49;4.00;99.90
33328;DHT22;19692;52.998;9.116;2023-02-01T13:48:27;4.10;99.90
33328;DHT22;19692;52.998;9.116;2023-02-01T13:50:57;4.40;99.90
33328;DHT22;19692;52.998;9.116;2023-02-01T13:56:19;4.90;99.90
33328;DHT22;19692;52.998;9.116;2023-02-01T13:58:47;5.20;99.90
33328;DHT22;19692;52.998;9.116;2023-02-01T14:09:17;6.10;99.90
33328;DHT22;19692;52.998;9.116;2023-02-01T14:11:52;6.30;99.90
33328;DHT22;19692;52.998;9.116;2023-02-01T14:19:28;6.30;99.90
33328;DHT22;19692;52.998;9.116;2023-02-01T14:24:50;6.10;99.90
33328;DHT22;19692;52.998;9.116;2023-02-01T14:27:26;6.30;99.90
33328;DHT22;19692;52.998;9.116;2023-02-01T14:29:57;6.30;99.90
33328;DHT22;19692;52.998;9.116;2023-02-01T14:32:30;6.50;99.90
33328;DHT22;19692;52.998;9.116;2023-02-01T14:35:00;6.50;99.90
33328;DHT22;19692;52.998;9.116;2023-02-01T14:37:38;6.40;99.90
33328;DHT22;19692;52.998;9.116;2023-02-01T14:40:15;6.40;99.90
33328;DHT22;19692;52.998;9.116;2023-02-01T14:42:50;6.40;99.90
33328;DHT22;19692;52.998;9.116;2023-02-01T14:47:54;6.30;99.90
33328;DHT22;19692;52.998;9.116;2023-02-01T14:50:49;6.30;99.90
33328;DHT22;19692;52.998;9.116;2023-02-01T14:53:23;6.30;99.90
33328;DHT22;19692;52.998;9.116;2023-02-01T15:01:32;6.20;99.90
33328;DHT22;19692;52.998;9.116;2023-02-01T15:04:10;6.10;99.90
33328;DHT22;19692;52.998;9.116;2023-02-01T15:06:41;6.00;99.90
33328;DHT22;19692;52.998;9.116;2023-02-01T15:09:27;5.90;99.90
33328;DHT22;19692;52.998;9.116;2023-02-01T15:15:13;5.80;99.90
33328;DHT22;19692;52.998;9.116;2023-02-01T15:23:43;5.70;99.90
33328;DHT22;19692;52.998;9.116;2023-02-01T15:26:21;5.70;99.90
33328;DHT22;19692;52.998;9.116;2023-02-01T15:28:49;5.70;99.90
33328;DHT22;19692;52.998;9.116;2023-02-01T15:31:31;5.70;99.90
33328;DHT22;19692;52.998;9.116;2023-02-01T15:34:02;5.70;99.90
33328;DHT22;19692;52.998;9.116;2023-02-01T15:36:28;5.70;99.90
33328;DHT22;19692;52.998;9.116;2023-02-01T15:39:20;5.70;99.90
33328;DHT22;19692;52.998;9.116;2023-02-01T15:42:11;5.70;99.90
33328;DHT22;19692;52.998;9.116;2023-02-01T15:44:43;5.70;99.90
33328;DHT22;19692;52.998;9.116;2023-02-01T15:47:18;5.80;99.90
33328;DHT22;19692;52.998;9.116;2023-02-01T15:49:56;5.80;99.90
33328;DHT22;19692;52.998;9.116;2023-02-01T15:52:27;5.90;99.90
33328;DHT22;19692;52.998;9.116;2023-02-01T15:55:05;6.00;99.90
33328;DHT22;19692;52.998;9.116;2023-02-01T15:57:36;6.00;99.90
33328;DHT22;19692;52.998;9.116;2023-02-01T16:00:24;6.10;99.90
33328;DHT22;19692;52.998;9.116;2023-02-01T16:03:03;6.20;99.90
33328;DHT22;19692;52.998;9.116;2023-02-01T16:05:37;6.30;99.90
33328;DHT22;19692;52.998;9.116;2023-02-01T16:08:15;6.30;99.90
33328;DHT22;19692;52.998;9.116;2023-02-01T16:10:47;6.30;99.90
33328;DHT22;19692;52.998;9.116;2023-02-01T16:13:16;6.40;99.90
33328;DHT22;19692;52.998;9.116;2023-02-01T16:15:44;6.40;99.90
33328;DHT22;19692;52.998;9.116;2023-02-01T16:18:10;6.30;99.90
33328;DHT22;19692;52.998;9.116;2023-02-01T16:20:39;6.20;99.90
33328;DHT22;19692;52.998;9.116;2023-02-01T16:23:06;5.10;99.90
33328;DHT22;19692;52.998;9.116;2023-02-01T16:25:33;4.50;99.90
33328;DHT22;19692;52.998;9.116;2023-02-01T16:28:03;4.40;99.90
33328;DHT22;19692;52.998;9.116;2023-02-01T16:30:30;4.60;99.90
33328;DHT22;19692;52.998;9.116;2023-02-01T16:32:58;4.60;99.90
33328;DHT22;19692;52.998;9.116;2023-02-01T16:35:31;4.70;99.90
33328;DHT22;19692;52.998;9.116;2023-02-01T16:38:05;4.70;99.90
33328;DHT22;19692;52.998;9.116;2023-02-01T16:40:39;4.90;99.90
33328;DHT22;19692;52.998;9.116;2023-02-01T16:43:15;4.90;99.90
33328;DHT22;19692;52.998;9.116;2023-02-01T16:45:44;4.80;99.90
33328;DHT22;19692;52.998;9.116;2023-02-01T16:48:27;4.80;99.90
33328;DHT22;19692;52.998;9.116;2023-02-01T16:50:59;4.80;99.90
33328;DHT22;19692;52.998;9.116;2023-02-01T16:53:29;4.90;99.90
33328;DHT22;19692;52.998;9.116;2023-02-01T16:55:56;4.90;99.90
33328;DHT22;19692;52.998;9.116;2023-02-01T16:58:26;5.00;99.90
33328;DHT22;19692;52.998;9.116;2023-02-01T17:00:52;5.00;99.90
33328;DHT22;19692;52.998;9.116;2023-02-01T17:03:20;5.00;99.90
33328;DHT22;19692;52.998;9.116;2023-02-01T17:05:52;4.90;99.90
33328;DHT22;19692;52.998;9.116;2023-02-01T17:08:32;4.90;99.90
33328;DHT22;19692;52.998;9.116;2023-02-01T17:10:59;4.80;99.90
33328;DHT22;19692;52.998;9.116;2023-02-01T17:13:26;4.90;99.90
33328;DHT22;19692;52.998;9.116;2023-02-01T17:18:32;5.00;99.90
33328;DHT22;19692;52.998;9.116;2023-02-01T17:21:00;5.00;99.90
33328;DHT22;19692;52.998;9.116;2023-02-01T17:23:28;5.00;99.90
33328;DHT22;19692;52.998;9.116;2023-02-01T17:25:54;5.00;99.90
33328;DHT22;19692;52.998;9.116;2023-02-01T17:28:21;5.10;99.90
33328;DHT22;19692;52.998;9.116;2023-02-01T17:30:47;5.00;99.90
33328;DHT22;19692;52.998;9.116;2023-02-01T17:33:34;5.00;99.90
33328;DHT22;19692;52.998;9.116;2023-02-01T17:36:02;5.10;99.90
33328;DHT22;19692;52.998;9.116;2023-02-01T17:38:29;5.00;99.90
33328;DHT22;19692;52.998;9.116;2023-02-01T17:40:54;4.90;99.90
33328;DHT22;19692;52.998;9.116;2023-02-01T17:43:25;4.30;99.90
33328;DHT22;19692;52.998;9.116;2023-02-01T17:45:54;3.90;99.90
33328;DHT22;19692;52.998;9.116;2023-02-01T17:48:24;3.60;99.90
33328;DHT22;19692;52.998;9.116;2023-02-01T17:50:50;3.50;99.90
33328;DHT22;19692;52.998;9.116;2023-02-01T17:53:19;3.50;99.90
33328;DHT22;19692;52.998;9.116;2023-02-01T17:55:49;3.60;99.90
33328;DHT22;19692;52.998;9.116;2023-02-01T17:58:16;3.70;99.90
33328;DHT22;19692;52.998;9.116;2023-02-01T18:00:43;3.80;99.90
33328;DHT22;19692;52.998;9.116;2023-02-01T18:05:53;4.00;99.90
33328;DHT22;19692;52.998;9.116;2023-02-01T18:08:21;4.00;99.90
33328;DHT22;19692;52.998;9.116;2023-02-01T18:10:56;4.10;99.90